WML52 KF45-MYAM
Flight info
| Callsign | WML52 |
|---|---|
| Flight time | 0h 35m |
| Altitude | 15000 |
| Route | TURPS DCT MYGF |
| Aircraft | C525/L-SDFGRWY/SB1 |
Departure
| Time | 2026-04-27 03:01 |
|---|---|
| Airport | North Palm Beach County General Aviation Airport (KF45) |
Arrival
| Time | 2026-04-27 03:37 |
|---|---|
| Airport | Leonard M. Thompson International Airport (MYAM) |
| Time | Latitude | Longitude | Altitude | Speed | Heading |
|---|---|---|---|---|---|
| 2026-04-27 02:55 | 26.84541 | -80.21967 | 24 ft | 0 kts | 48° |
| 2026-04-27 02:58 | 26.84543 | -80.21954 | 24 ft | 6 kts | 111° |
| 2026-04-27 02:59 | 26.84472 | -80.21964 | 24 ft | 18 kts | 219° |
| 2026-04-27 02:59 | 26.84396 | -80.21935 | 24 ft | 14 kts | 115° |
| 2026-04-27 02:59 | 26.84400 | -80.21795 | 24 ft | 21 kts | 85° |
| 2026-04-27 02:59 | 26.84414 | -80.21594 | 24 ft | 27 kts | 87° |
| 2026-04-27 03:00 | 26.84428 | -80.21421 | 24 ft | 12 kts | 84° |
| 2026-04-27 03:00 | 26.84376 | -80.21380 | 24 ft | 9 kts | 175° |
| 2026-04-27 03:00 | 26.84343 | -80.21447 | 24 ft | 20 kts | 265° |
| 2026-04-27 03:00 | 26.84309 | -80.21931 | 24 ft | 100 kts | 264° |
| 2026-04-27 03:01 | 26.84237 | -80.22831 | 420 ft | 121 kts | 261° |
| 2026-04-27 03:01 | 26.84049 | -80.23827 | 842 ft | 146 kts | 239° |
| 2026-04-27 03:01 | 26.83150 | -80.24593 | 1140 ft | 185 kts | 193° |
| 2026-04-27 03:01 | 26.81723 | -80.24480 | 1148 ft | 222 kts | 167° |
| 2026-04-27 03:02 | 26.80307 | -80.23462 | 1118 ft | 253 kts | 134° |
| 2026-04-27 03:02 | 26.79239 | -80.21739 | 1083 ft | 276 kts | 117° |
| 2026-04-27 03:02 | 26.78713 | -80.19617 | 1069 ft | 285 kts | 94° |
| 2026-04-27 03:02 | 26.79041 | -80.17427 | 1087 ft | 279 kts | 77° |
| 2026-04-27 03:03 | 26.79583 | -80.15309 | 1068 ft | 280 kts | 76° |
| 2026-04-27 03:03 | 26.78978 | -80.11583 | 3678 ft | 226 kts | 112° |
| 2026-04-27 03:03 | 26.78379 | -80.09968 | 4641 ft | 225 kts | 111° |
| 2026-04-27 03:04 | 26.77811 | -80.08301 | 5502 ft | 229 kts | 109° |
| 2026-04-27 03:04 | 26.77286 | -80.06621 | 6356 ft | 231 kts | 107° |
| 2026-04-27 03:04 | 26.76768 | -80.04878 | 7148 ft | 235 kts | 107° |
| 2026-04-27 03:04 | 26.76255 | -80.03114 | 7942 ft | 238 kts | 107° |
| 2026-04-27 03:05 | 26.75734 | -80.01313 | 8738 ft | 240 kts | 107° |
| 2026-04-27 03:05 | 26.75207 | -79.99493 | 9504 ft | 242 kts | 108° |
| 2026-04-27 03:05 | 26.74670 | -79.97644 | 10195 ft | 247 kts | 108° |
| 2026-04-27 03:05 | 26.74137 | -79.95810 | 10914 ft | 249 kts | 107° |
| 2026-04-27 03:06 | 26.73588 | -79.93925 | 11555 ft | 253 kts | 107° |
| 2026-04-27 03:06 | 26.73039 | -79.92039 | 12180 ft | 257 kts | 107° |
| 2026-04-27 03:06 | 26.72482 | -79.90130 | 12790 ft | 260 kts | 107° |
| 2026-04-27 03:06 | 26.71916 | -79.88187 | 13386 ft | 264 kts | 107° |
| 2026-04-27 03:07 | 26.71338 | -79.86206 | 14005 ft | 266 kts | 107° |
| 2026-04-27 03:07 | 26.70763 | -79.84236 | 14603 ft | 268 kts | 107° |
| 2026-04-27 03:07 | 26.70171 | -79.82207 | 14919 ft | 282 kts | 107° |
| 2026-04-27 03:07 | 26.69543 | -79.80057 | 14988 ft | 297 kts | 107° |
| 2026-04-27 03:08 | 26.68886 | -79.77810 | 14981 ft | 305 kts | 107° |
| 2026-04-27 03:08 | 26.68229 | -79.75536 | 14983 ft | 311 kts | 106° |
| 2026-04-27 03:08 | 26.67681 | -79.73154 | 14980 ft | 315 kts | 100° |
| 2026-04-27 03:08 | 26.67352 | -79.70686 | 14984 ft | 319 kts | 94° |
| 2026-04-27 03:09 | 26.67120 | -79.68237 | 14982 ft | 323 kts | 95° |
| 2026-04-27 03:09 | 26.66853 | -79.65709 | 14977 ft | 326 kts | 95° |
| 2026-04-27 03:09 | 26.66618 | -79.63205 | 14976 ft | 328 kts | 94° |
| 2026-04-27 03:09 | 26.66378 | -79.60666 | 14979 ft | 330 kts | 95° |
| 2026-04-27 03:10 | 26.66118 | -79.58084 | 14980 ft | 331 kts | 95° |
| 2026-04-27 03:10 | 26.65845 | -79.55531 | 14980 ft | 333 kts | 96° |
| 2026-04-27 03:10 | 26.65558 | -79.52978 | 14980 ft | 334 kts | 96° |
| 2026-04-27 03:10 | 26.65263 | -79.50408 | 14977 ft | 335 kts | 96° |
| 2026-04-27 03:11 | 26.64964 | -79.47814 | 14983 ft | 335 kts | 96° |
| 2026-04-27 03:11 | 26.64666 | -79.45222 | 14981 ft | 336 kts | 96° |
| 2026-04-27 03:11 | 26.64369 | -79.42635 | 14978 ft | 337 kts | 96° |
| 2026-04-27 03:11 | 26.64074 | -79.40048 | 14974 ft | 337 kts | 96° |
| 2026-04-27 03:12 | 26.63775 | -79.37414 | 14971 ft | 338 kts | 96° |
| 2026-04-27 03:12 | 26.63480 | -79.34835 | 14968 ft | 338 kts | 96° |
| 2026-04-27 03:12 | 26.63173 | -79.32134 | 14962 ft | 339 kts | 96° |
| 2026-04-27 03:12 | 26.62875 | -79.29532 | 14961 ft | 339 kts | 96° |
| 2026-04-27 03:13 | 26.62578 | -79.26939 | 14961 ft | 339 kts | 96° |
| 2026-04-27 03:13 | 26.62277 | -79.24316 | 14959 ft | 339 kts | 96° |
| 2026-04-27 03:13 | 26.61975 | -79.21685 | 14959 ft | 338 kts | 96° |
| 2026-04-27 03:13 | 26.61675 | -79.19079 | 14962 ft | 338 kts | 96° |
| 2026-04-27 03:14 | 26.61375 | -79.16475 | 14964 ft | 338 kts | 96° |
| 2026-04-27 03:14 | 26.61074 | -79.13869 | 14964 ft | 338 kts | 96° |
| 2026-04-27 03:14 | 26.60769 | -79.11241 | 14963 ft | 338 kts | 96° |
| 2026-04-27 03:14 | 26.60468 | -79.08648 | 14965 ft | 338 kts | 96° |
| 2026-04-27 03:15 | 26.60165 | -79.06030 | 14967 ft | 338 kts | 96° |
| 2026-04-27 03:15 | 26.59858 | -79.03397 | 14971 ft | 338 kts | 96° |
| 2026-04-27 03:15 | 26.59552 | -79.00768 | 14972 ft | 338 kts | 96° |
| 2026-04-27 03:15 | 26.59248 | -78.98170 | 14975 ft | 339 kts | 96° |
| 2026-04-27 03:16 | 26.58944 | -78.95554 | 14976 ft | 339 kts | 97° |
| 2026-04-27 03:16 | 26.58638 | -78.92954 | 14977 ft | 339 kts | 96° |
| 2026-04-27 03:16 | 26.58327 | -78.90302 | 14978 ft | 339 kts | 97° |
| 2026-04-27 03:16 | 26.58022 | -78.87698 | 14980 ft | 339 kts | 97° |
| 2026-04-27 03:17 | 26.57712 | -78.85060 | 14981 ft | 339 kts | 96° |
| 2026-04-27 03:17 | 26.57405 | -78.82461 | 14981 ft | 339 kts | 97° |
| 2026-04-27 03:17 | 26.57092 | -78.79811 | 14981 ft | 339 kts | 97° |
| 2026-04-27 03:17 | 26.56783 | -78.77200 | 14984 ft | 338 kts | 96° |
| 2026-04-27 03:18 | 26.56472 | -78.74560 | 14985 ft | 338 kts | 96° |
| 2026-04-27 03:18 | 26.56154 | -78.71886 | 14989 ft | 338 kts | 96° |
| 2026-04-27 03:18 | 26.55861 | -78.69251 | 14987 ft | 339 kts | 95° |
| 2026-04-27 03:18 | 26.55650 | -78.66588 | 14986 ft | 339 kts | 92° |
| 2026-04-27 03:19 | 26.55555 | -78.63954 | 14985 ft | 338 kts | 90° |
| 2026-04-27 03:19 | 26.55530 | -78.61286 | 14985 ft | 338 kts | 89° |
| 2026-04-27 03:19 | 26.55527 | -78.58660 | 14987 ft | 338 kts | 89° |
| 2026-04-27 03:19 | 26.55514 | -78.56032 | 14988 ft | 338 kts | 89° |
| 2026-04-27 03:20 | 26.55480 | -78.53368 | 14985 ft | 338 kts | 90° |
| 2026-04-27 03:20 | 26.55425 | -78.50713 | 14983 ft | 338 kts | 90° |
| 2026-04-27 03:20 | 26.55356 | -78.48068 | 14981 ft | 338 kts | 90° |
| 2026-04-27 03:20 | 26.55281 | -78.45444 | 14980 ft | 338 kts | 90° |
| 2026-04-27 03:21 | 26.55203 | -78.42784 | 14982 ft | 338 kts | 90° |
| 2026-04-27 03:21 | 26.55129 | -78.40179 | 14981 ft | 338 kts | 90° |
| 2026-04-27 03:21 | 26.55056 | -78.37568 | 14982 ft | 338 kts | 90° |
| 2026-04-27 03:21 | 26.54984 | -78.34950 | 14985 ft | 337 kts | 90° |
| 2026-04-27 03:22 | 26.54913 | -78.32278 | 14985 ft | 337 kts | 91° |
| 2026-04-27 03:22 | 26.54841 | -78.29612 | 14989 ft | 337 kts | 91° |
| 2026-04-27 03:22 | 26.54771 | -78.27013 | 14993 ft | 337 kts | 91° |
| 2026-04-27 03:22 | 26.54698 | -78.24338 | 14993 ft | 337 kts | 91° |
| 2026-04-27 03:23 | 26.54625 | -78.21719 | 14994 ft | 337 kts | 91° |
| 2026-04-27 03:23 | 26.54552 | -78.19111 | 14993 ft | 337 kts | 91° |
| 2026-04-27 03:23 | 26.54479 | -78.16515 | 14993 ft | 337 kts | 90° |
| 2026-04-27 03:23 | 26.54404 | -78.13857 | 14994 ft | 337 kts | 91° |
| 2026-04-27 03:24 | 26.54328 | -78.11208 | 14992 ft | 336 kts | 90° |
| 2026-04-27 03:24 | 26.54255 | -78.08598 | 14996 ft | 336 kts | 91° |
| 2026-04-27 03:24 | 26.54170 | -78.05944 | 14998 ft | 336 kts | 91° |
| 2026-04-27 03:24 | 26.54076 | -78.03324 | 14998 ft | 336 kts | 91° |
| 2026-04-27 03:25 | 26.53977 | -78.00687 | 14667 ft | 337 kts | 91° |
| 2026-04-27 03:25 | 26.53877 | -77.98077 | 14202 ft | 339 kts | 91° |
| 2026-04-27 03:25 | 26.53776 | -77.95435 | 13723 ft | 340 kts | 91° |
| 2026-04-27 03:25 | 26.53676 | -77.92813 | 13245 ft | 341 kts | 91° |
| 2026-04-27 03:26 | 26.53577 | -77.90156 | 12761 ft | 342 kts | 91° |
| 2026-04-27 03:26 | 26.53479 | -77.87506 | 12282 ft | 342 kts | 91° |
| 2026-04-27 03:26 | 26.53381 | -77.84840 | 11803 ft | 342 kts | 91° |
| 2026-04-27 03:26 | 26.53282 | -77.82193 | 11327 ft | 341 kts | 91° |
| 2026-04-27 03:27 | 26.53183 | -77.79533 | 10841 ft | 340 kts | 91° |
| 2026-04-27 03:27 | 26.53085 | -77.76929 | 10365 ft | 339 kts | 91° |
| 2026-04-27 03:27 | 26.52986 | -77.74296 | 9879 ft | 337 kts | 91° |
| 2026-04-27 03:27 | 26.52886 | -77.71672 | 9390 ft | 336 kts | 91° |
| 2026-04-27 03:28 | 26.52787 | -77.69086 | 8905 ft | 335 kts | 91° |
| 2026-04-27 03:28 | 26.52686 | -77.66457 | 8414 ft | 333 kts | 91° |
| 2026-04-27 03:28 | 26.52586 | -77.63883 | 7929 ft | 332 kts | 91° |
| 2026-04-27 03:28 | 26.52485 | -77.61292 | 7438 ft | 331 kts | 91° |
| 2026-04-27 03:29 | 26.52385 | -77.58724 | 6954 ft | 330 kts | 92° |
| 2026-04-27 03:29 | 26.52284 | -77.56118 | 6456 ft | 329 kts | 92° |
| 2026-04-27 03:29 | 26.52183 | -77.53566 | 5973 ft | 328 kts | 92° |
| 2026-04-27 03:29 | 26.52082 | -77.51008 | 5486 ft | 327 kts | 92° |
| 2026-04-27 03:30 | 26.51983 | -77.48504 | 5008 ft | 326 kts | 92° |
| 2026-04-27 03:30 | 26.51880 | -77.45924 | 4511 ft | 325 kts | 92° |
| 2026-04-27 03:30 | 26.51780 | -77.43407 | 4026 ft | 323 kts | 92° |
| 2026-04-27 03:30 | 26.51678 | -77.40881 | 3540 ft | 318 kts | 92° |
| 2026-04-27 03:31 | 26.51584 | -77.38517 | 3039 ft | 294 kts | 92° |
| 2026-04-27 03:31 | 26.51494 | -77.36307 | 2584 ft | 275 kts | 92° |
| 2026-04-27 03:31 | 26.51409 | -77.34209 | 2284 ft | 257 kts | 93° |
| 2026-04-27 03:31 | 26.51329 | -77.32262 | 1982 ft | 245 kts | 93° |
| 2026-04-27 03:32 | 26.51252 | -77.30381 | 1678 ft | 235 kts | 94° |
| 2026-04-27 03:32 | 26.51179 | -77.28597 | 1512 ft | 221 kts | 94° |
| 2026-04-27 03:32 | 26.51111 | -77.26950 | 1481 ft | 204 kts | 93° |
| 2026-04-27 03:32 | 26.51048 | -77.25424 | 1481 ft | 189 kts | 93° |
| 2026-04-27 03:33 | 26.50987 | -77.23962 | 1490 ft | 185 kts | 93° |
| 2026-04-27 03:33 | 26.50928 | -77.22531 | 1491 ft | 181 kts | 93° |
| 2026-04-27 03:33 | 26.50869 | -77.21124 | 1494 ft | 178 kts | 94° |
| 2026-04-27 03:33 | 26.50811 | -77.19737 | 1497 ft | 175 kts | 94° |
| 2026-04-27 03:34 | 26.50755 | -77.18385 | 1497 ft | 173 kts | 94° |
| 2026-04-27 03:34 | 26.50781 | -77.17023 | 1374 ft | 172 kts | 89° |
| 2026-04-27 03:34 | 26.50822 | -77.15756 | 1095 ft | 156 kts | 89° |
| 2026-04-27 03:34 | 26.50853 | -77.14671 | 931 ft | 128 kts | 89° |
| 2026-04-27 03:35 | 26.50878 | -77.13736 | 753 ft | 112 kts | 90° |
| 2026-04-27 03:35 | 26.50901 | -77.12890 | 612 ft | 101 kts | 90° |
| 2026-04-27 03:35 | 26.50921 | -77.12118 | 503 ft | 97 kts | 90° |
| 2026-04-27 03:35 | 26.50940 | -77.11355 | 373 ft | 99 kts | 90° |
| 2026-04-27 03:36 | 26.50962 | -77.10577 | 248 ft | 102 kts | 88° |
| 2026-04-27 03:36 | 26.50982 | -77.09766 | 95 ft | 105 kts | 90° |
| 2026-04-27 03:36 | 26.51001 | -77.08981 | 10 ft | 92 kts | 90° |
| 2026-04-27 03:36 | 26.51015 | -77.08369 | 13 ft | 66 kts | 89° |
| 2026-04-27 03:37 | 26.51102 | -77.08017 | 14 ft | 39 kts | 60° |
| 2026-04-27 03:37 | 26.51232 | -77.07792 | 14 ft | 18 kts | 53° |
| 2026-04-27 03:37 | 26.51275 | -77.07679 | 14 ft | 7 kts | 90° |
| 2026-04-27 03:37 | 26.51275 | -77.07677 | 14 ft | 0 kts | 90° |